sensor_id;sensor_type;location;lat;lon;timestamp;P1;durP1;ratioP1;P2;durP2;ratioP2
2542;SDS011;1116;51.502;7.414;2023-02-03T00:01:36;26.87;;;19.20;;
2542;SDS011;1116;51.502;7.414;2023-02-03T00:04:07;22.53;;;18.93;;
2542;SDS011;1116;51.502;7.414;2023-02-03T00:06:41;24.97;;;19.40;;
2542;SDS011;1116;51.502;7.414;2023-02-03T00:09:13;23.97;;;18.93;;
2542;SDS011;1116;51.502;7.414;2023-02-03T00:11:47;21.20;;;18.20;;
2542;SDS011;1116;51.502;7.414;2023-02-03T00:14:18;20.50;;;17.20;;
2542;SDS011;1116;51.502;7.414;2023-02-03T00:16:49;27.00;;;19.17;;
2542;SDS011;1116;51.502;7.414;2023-02-03T00:19:23;22.10;;;16.97;;
2542;SDS011;1116;51.502;7.414;2023-02-03T00:21:56;21.90;;;17.80;;
2542;SDS011;1116;51.502;7.414;2023-02-03T00:24:40;22.07;;;17.60;;
2542;SDS011;1116;51.502;7.414;2023-02-03T00:27:11;22.20;;;17.27;;
2542;SDS011;1116;51.502;7.414;2023-02-03T00:29:42;21.97;;;17.77;;
2542;SDS011;1116;51.502;7.414;2023-02-03T00:32:13;23.20;;;17.80;;
2542;SDS011;1116;51.502;7.414;2023-02-03T00:34:44;21.50;;;18.43;;
2542;SDS011;1116;51.502;7.414;2023-02-03T00:37:20;20.97;;;16.77;;
2542;SDS011;1116;51.502;7.414;2023-02-03T00:39:52;21.03;;;17.17;;
2542;SDS011;1116;51.502;7.414;2023-02-03T00:42:23;22.47;;;17.27;;
2542;SDS011;1116;51.502;7.414;2023-02-03T00:44:53;19.27;;;17.13;;
2542;SDS011;1116;51.502;7.414;2023-02-03T00:47:24;26.33;;;16.83;;
2542;SDS011;1116;51.502;7.414;2023-02-03T00:49:55;20.83;;;16.70;;
2542;SDS011;1116;51.502;7.414;2023-02-03T00:52:28;22.47;;;15.80;;
2542;SDS011;1116;51.502;7.414;2023-02-03T00:54:59;23.30;;;17.37;;
2542;SDS011;1116;51.502;7.414;2023-02-03T00:57:30;20.83;;;17.10;;
2542;SDS011;1116;51.502;7.414;2023-02-03T01:00:00;23.23;;;17.37;;
2542;SDS011;1116;51.502;7.414;2023-02-03T01:02:31;22.37;;;16.73;;
2542;SDS011;1116;51.502;7.414;2023-02-03T01:05:02;24.53;;;16.40;;
2542;SDS011;1116;51.502;7.414;2023-02-03T01:07:36;18.83;;;15.90;;
2542;SDS011;1116;51.502;7.414;2023-02-03T01:10:07;20.00;;;16.27;;
2542;SDS011;1116;51.502;7.414;2023-02-03T01:12:38;20.03;;;15.87;;
2542;SDS011;1116;51.502;7.414;2023-02-03T01:15:09;19.77;;;16.03;;
2542;SDS011;1116;51.502;7.414;2023-02-03T01:17:40;23.60;;;17.73;;
2542;SDS011;1116;51.502;7.414;2023-02-03T01:20:11;24.10;;;15.67;;
2542;SDS011;1116;51.502;7.414;2023-02-03T01:22:45;21.40;;;16.27;;
2542;SDS011;1116;51.502;7.414;2023-02-03T01:25:20;20.20;;;16.47;;
2542;SDS011;1116;51.502;7.414;2023-02-03T01:27:53;31.93;;;17.60;;
2542;SDS011;1116;51.502;7.414;2023-02-03T01:30:24;23.10;;;16.67;;
2542;SDS011;1116;51.502;7.414;2023-02-03T01:32:55;20.53;;;17.03;;
2542;SDS011;1116;51.502;7.414;2023-02-03T01:35:26;20.33;;;17.67;;
2542;SDS011;1116;51.502;7.414;2023-02-03T01:37:59;25.20;;;17.80;;
2542;SDS011;1116;51.502;7.414;2023-02-03T01:40:32;21.20;;;16.90;;
2542;SDS011;1116;51.502;7.414;2023-02-03T01:43:03;21.50;;;18.20;;
2542;SDS011;1116;51.502;7.414;2023-02-03T01:45:33;20.10;;;16.40;;
2542;SDS011;1116;51.502;7.414;2023-02-03T01:48:04;22.53;;;17.50;;
2542;SDS011;1116;51.502;7.414;2023-02-03T01:50:37;23.97;;;17.53;;
2542;SDS011;1116;51.502;7.414;2023-02-03T01:53:10;21.23;;;16.47;;
2542;SDS011;1116;51.502;7.414;2023-02-03T01:55:42;21.23;;;17.10;;
2542;SDS011;1116;51.502;7.414;2023-02-03T01:58:17;24.10;;;17.50;;
2542;SDS011;1116;51.502;7.414;2023-02-03T02:00:51;21.40;;;16.63;;
2542;SDS011;1116;51.502;7.414;2023-02-03T02:03:30;22.87;;;17.47;;
2542;SDS011;1116;51.502;7.414;2023-02-03T02:06:04;22.10;;;16.27;;
2542;SDS011;1116;51.502;7.414;2023-02-03T02:08:41;21.50;;;16.20;;
2542;SDS011;1116;51.502;7.414;2023-02-03T02:11:16;22.47;;;17.37;;
2542;SDS011;1116;51.502;7.414;2023-02-03T02:13:49;20.70;;;16.77;;
2542;SDS011;1116;51.502;7.414;2023-02-03T02:16:24;21.13;;;16.40;;
2542;SDS011;1116;51.502;7.414;2023-02-03T02:19:10;20.37;;;16.77;;
2542;SDS011;1116;51.502;7.414;2023-02-03T02:22:08;27.50;;;16.90;;
2542;SDS011;1116;51.502;7.414;2023-02-03T02:24:57;19.63;;;17.10;;
2542;SDS011;1116;51.502;7.414;2023-02-03T02:27:48;23.00;;;16.20;;
2542;SDS011;1116;51.502;7.414;2023-02-03T02:30:48;23.27;;;17.43;;
2542;SDS011;1116;51.502;7.414;2023-02-03T02:33:39;18.13;;;14.40;;
2542;SDS011;1116;51.502;7.414;2023-02-03T02:36:16;23.00;;;15.23;;
2542;SDS011;1116;51.502;7.414;2023-02-03T02:38:56;19.53;;;14.90;;
2542;SDS011;1116;51.502;7.414;2023-02-03T02:41:38;19.07;;;15.07;;
2542;SDS011;1116;51.502;7.414;2023-02-03T02:44:15;19.67;;;15.00;;
2542;SDS011;1116;51.502;7.414;2023-02-03T02:46:51;17.10;;;14.70;;
2542;SDS011;1116;51.502;7.414;2023-02-03T02:49:29;21.03;;;14.50;;
2542;SDS011;1116;51.502;7.414;2023-02-03T02:52:03;19.27;;;13.90;;
2542;SDS011;1116;51.502;7.414;2023-02-03T02:54:36;17.30;;;13.90;;
2542;SDS011;1116;51.502;7.414;2023-02-03T02:57:11;16.37;;;13.50;;
2542;SDS011;1116;51.502;7.414;2023-02-03T02:59:45;18.60;;;13.77;;
2542;SDS011;1116;51.502;7.414;2023-02-03T03:02:16;21.83;;;14.70;;
2542;SDS011;1116;51.502;7.414;2023-02-03T03:07:55;17.20;;;12.63;;
2542;SDS011;1116;51.502;7.414;2023-02-03T03:10:29;17.83;;;13.27;;
2542;SDS011;1116;51.502;7.414;2023-02-03T03:13:02;19.20;;;14.20;;
2542;SDS011;1116;51.502;7.414;2023-02-03T03:15:36;16.93;;;13.00;;
2542;SDS011;1116;51.502;7.414;2023-02-03T03:18:13;16.60;;;12.93;;
2542;SDS011;1116;51.502;7.414;2023-02-03T03:20:55;16.90;;;13.10;;
2542;SDS011;1116;51.502;7.414;2023-02-03T03:23:34;15.60;;;12.20;;
2542;SDS011;1116;51.502;7.414;2023-02-03T03:26:09;16.17;;;12.77;;
2542;SDS011;1116;51.502;7.414;2023-02-03T03:28:45;14.40;;;11.37;;
2542;SDS011;1116;51.502;7.414;2023-02-03T03:31:18;15.80;;;12.27;;
2542;SDS011;1116;51.502;7.414;2023-02-03T03:33:52;15.87;;;11.80;;
2542;SDS011;1116;51.502;7.414;2023-02-03T03:36:26;14.40;;;10.57;;
2542;SDS011;1116;51.502;7.414;2023-02-03T03:39:01;14.53;;;11.40;;
2542;SDS011;1116;51.502;7.414;2023-02-03T03:41:46;17.53;;;11.03;;
2542;SDS011;1116;51.502;7.414;2023-02-03T03:44:27;15.90;;;10.27;;
2542;SDS011;1116;51.502;7.414;2023-02-03T03:47:04;12.70;;;9.73;;
2542;SDS011;1116;51.502;7.414;2023-02-03T03:49:47;11.53;;;9.63;;
2542;SDS011;1116;51.502;7.414;2023-02-03T03:52:23;15.97;;;9.47;;
2542;SDS011;1116;51.502;7.414;2023-02-03T03:54:58;13.27;;;9.20;;
2542;SDS011;1116;51.502;7.414;2023-02-03T03:57:32;13.17;;;8.93;;
2542;SDS011;1116;51.502;7.414;2023-02-03T04:00:07;11.43;;;8.20;;
2542;SDS011;1116;51.502;7.414;2023-02-03T04:02:43;9.83;;;8.83;;
2542;SDS011;1116;51.502;7.414;2023-02-03T04:05:18;11.50;;;8.63;;
2542;SDS011;1116;51.502;7.414;2023-02-03T04:07:52;12.13;;;9.27;;
2542;SDS011;1116;51.502;7.414;2023-02-03T04:10:24;9.40;;;7.73;;
2542;SDS011;1116;51.502;7.414;2023-02-03T04:13:01;10.80;;;8.07;;
2542;SDS011;1116;51.502;7.414;2023-02-03T04:15:33;13.27;;;8.00;;
2542;SDS011;1116;51.502;7.414;2023-02-03T04:18:04;10.13;;;7.93;;
2542;SDS011;1116;51.502;7.414;2023-02-03T04:20:35;9.70;;;7.83;;
2542;SDS011;1116;51.502;7.414;2023-02-03T04:23:12;11.40;;;8.13;;
2542;SDS011;1116;51.502;7.414;2023-02-03T04:25:43;12.10;;;7.37;;
2542;SDS011;1116;51.502;7.414;2023-02-03T04:28:13;10.77;;;8.10;;
2542;SDS011;1116;51.502;7.414;2023-02-03T04:30:44;11.23;;;7.57;;
2542;SDS011;1116;51.502;7.414;2023-02-03T04:33:16;11.80;;;7.73;;
2542;SDS011;1116;51.502;7.414;2023-02-03T04:35:49;11.43;;;7.80;;
2542;SDS011;1116;51.502;7.414;2023-02-03T04:38:25;11.47;;;7.77;;
2542;SDS011;1116;51.502;7.414;2023-02-03T04:40:56;10.70;;;7.77;;
2542;SDS011;1116;51.502;7.414;2023-02-03T04:43:27;10.20;;;7.37;;
2542;SDS011;1116;51.502;7.414;2023-02-03T04:45:58;11.20;;;7.17;;
2542;SDS011;1116;51.502;7.414;2023-02-03T04:48:29;10.03;;;7.40;;
2542;SDS011;1116;51.502;7.414;2023-02-03T04:51:00;13.57;;;6.90;;
2542;SDS011;1116;51.502;7.414;2023-02-03T04:53:34;10.00;;;6.77;;
2542;SDS011;1116;51.502;7.414;2023-02-03T04:56:05;8.67;;;6.93;;
2542;SDS011;1116;51.502;7.414;2023-02-03T04:58:36;10.73;;;7.27;;
2542;SDS011;1116;51.502;7.414;2023-02-03T05:01:09;8.10;;;7.10;;
2542;SDS011;1116;51.502;7.414;2023-02-03T05:03:41;11.93;;;7.10;;
2542;SDS011;1116;51.502;7.414;2023-02-03T05:06:12;9.30;;;6.97;;
2542;SDS011;1116;51.502;7.414;2023-02-03T05:08:55;8.33;;;6.80;;
2542;SDS011;1116;51.502;7.414;2023-02-03T05:11:26;12.20;;;7.67;;
2542;SDS011;1116;51.502;7.414;2023-02-03T05:13:57;9.23;;;7.10;;
2542;SDS011;1116;51.502;7.414;2023-02-03T05:16:28;14.83;;;7.70;;
2542;SDS011;1116;51.502;7.414;2023-02-03T05:19:00;10.90;;;7.47;;
2542;SDS011;1116;51.502;7.414;2023-02-03T05:21:31;15.20;;;7.00;;
2542;SDS011;1116;51.502;7.414;2023-02-03T05:24:05;8.57;;;6.23;;
2542;SDS011;1116;51.502;7.414;2023-02-03T05:26:36;10.57;;;7.00;;
2542;SDS011;1116;51.502;7.414;2023-02-03T05:29:08;10.57;;;6.30;;
2542;SDS011;1116;51.502;7.414;2023-02-03T05:31:40;11.40;;;6.60;;
2542;SDS011;1116;51.502;7.414;2023-02-03T05:34:11;9.53;;;6.67;;
2542;SDS011;1116;51.502;7.414;2023-02-03T05:36:41;10.40;;;7.27;;
2542;SDS011;1116;51.502;7.414;2023-02-03T05:39:15;7.60;;;6.53;;
2542;SDS011;1116;51.502;7.414;2023-02-03T05:41:48;9.90;;;5.97;;
2542;SDS011;1116;51.502;7.414;2023-02-03T05:44:18;9.83;;;6.07;;
2542;SDS011;1116;51.502;7.414;2023-02-03T05:46:51;9.37;;;6.20;;
2542;SDS011;1116;51.502;7.414;2023-02-03T05:49:23;7.27;;;5.33;;
2542;SDS011;1116;51.502;7.414;2023-02-03T05:51:54;10.43;;;5.80;;
2542;SDS011;1116;51.502;7.414;2023-02-03T05:54:30;8.30;;;5.50;;
2542;SDS011;1116;51.502;7.414;2023-02-03T05:57:01;9.97;;;5.57;;
2542;SDS011;1116;51.502;7.414;2023-02-03T05:59:32;10.77;;;6.07;;
2542;SDS011;1116;51.502;7.414;2023-02-03T06:02:02;10.33;;;5.93;;
2542;SDS011;1116;51.502;7.414;2023-02-03T06:04:33;9.67;;;5.63;;
2542;SDS011;1116;51.502;7.414;2023-02-03T06:07:04;6.43;;;4.90;;
2542;SDS011;1116;51.502;7.414;2023-02-03T06:09:38;11.53;;;6.10;;
2542;SDS011;1116;51.502;7.414;2023-02-03T06:12:08;7.63;;;5.10;;
2542;SDS011;1116;51.502;7.414;2023-02-03T06:14:39;10.47;;;5.60;;
2542;SDS011;1116;51.502;7.414;2023-02-03T06:17:19;8.60;;;4.87;;
2542;SDS011;1116;51.502;7.414;2023-02-03T06:19:50;8.50;;;5.33;;
2542;SDS011;1116;51.502;7.414;2023-02-03T06:22:21;8.50;;;5.30;;
2542;SDS011;1116;51.502;7.414;2023-02-03T06:24:54;7.73;;;5.83;;
2542;SDS011;1116;51.502;7.414;2023-02-03T06:27:31;8.70;;;5.40;;
2542;SDS011;1116;51.502;7.414;2023-02-03T06:30:03;8.70;;;5.60;;
2542;SDS011;1116;51.502;7.414;2023-02-03T06:32:34;10.47;;;6.10;;
2542;SDS011;1116;51.502;7.414;2023-02-03T06:35:05;8.83;;;5.23;;
2542;SDS011;1116;51.502;7.414;2023-02-03T06:37:37;9.63;;;5.73;;
2542;SDS011;1116;51.502;7.414;2023-02-03T06:40:11;8.20;;;5.90;;
2542;SDS011;1116;51.502;7.414;2023-02-03T06:42:43;9.13;;;5.70;;
2542;SDS011;1116;51.502;7.414;2023-02-03T06:45:15;9.23;;;6.30;;
2542;SDS011;1116;51.502;7.414;2023-02-03T06:47:46;9.67;;;5.40;;
2542;SDS011;1116;51.502;7.414;2023-02-03T06:50:17;10.43;;;6.00;;
2542;SDS011;1116;51.502;7.414;2023-02-03T06:52:48;7.97;;;6.10;;
2542;SDS011;1116;51.502;7.414;2023-02-03T06:55:21;11.20;;;6.03;;
2542;SDS011;1116;51.502;7.414;2023-02-03T06:57:52;9.20;;;6.10;;
2542;SDS011;1116;51.502;7.414;2023-02-03T07:00:23;10.40;;;6.60;;
2542;SDS011;1116;51.502;7.414;2023-02-03T07:03:21;10.00;;;6.40;;
2542;SDS011;1116;51.502;7.414;2023-02-03T07:05:52;8.60;;;6.40;;
2542;SDS011;1116;51.502;7.414;2023-02-03T07:08:26;9.40;;;7.00;;
2542;SDS011;1116;51.502;7.414;2023-02-03T07:10:59;10.43;;;6.80;;
2542;SDS011;1116;51.502;7.414;2023-02-03T07:13:30;12.27;;;7.20;;
2542;SDS011;1116;51.502;7.414;2023-02-03T07:16:04;11.47;;;7.00;;
2542;SDS011;1116;51.502;7.414;2023-02-03T07:18:35;9.50;;;7.87;;
2542;SDS011;1116;51.502;7.414;2023-02-03T07:21:16;9.83;;;7.23;;
2542;SDS011;1116;51.502;7.414;2023-02-03T07:23:46;15.03;;;7.30;;
2542;SDS011;1116;51.502;7.414;2023-02-03T07:26:23;11.90;;;6.93;;
2542;SDS011;1116;51.502;7.414;2023-02-03T07:28:54;11.60;;;7.70;;
2542;SDS011;1116;51.502;7.414;2023-02-03T07:31:27;10.77;;;7.57;;
2542;SDS011;1116;51.502;7.414;2023-02-03T07:33:59;8.80;;;7.47;;
2542;SDS011;1116;51.502;7.414;2023-02-03T07:36:32;12.10;;;8.00;;
2542;SDS011;1116;51.502;7.414;2023-02-03T07:39:03;10.23;;;6.93;;
2542;SDS011;1116;51.502;7.414;2023-02-03T07:41:37;12.03;;;7.70;;
2542;SDS011;1116;51.502;7.414;2023-02-03T07:44:07;8.53;;;7.63;;
2542;SDS011;1116;51.502;7.414;2023-02-03T07:46:39;10.73;;;6.47;;
2542;SDS011;1116;51.502;7.414;2023-02-03T07:49:11;10.83;;;7.47;;
2542;SDS011;1116;51.502;7.414;2023-02-03T07:51:43;8.13;;;7.30;;
2542;SDS011;1116;51.502;7.414;2023-02-03T07:54:14;11.77;;;7.20;;
2542;SDS011;1116;51.502;7.414;2023-02-03T07:56:47;9.70;;;7.80;;
2542;SDS011;1116;51.502;7.414;2023-02-03T07:59:21;11.03;;;8.20;;
2542;SDS011;1116;51.502;7.414;2023-02-03T08:01:52;13.07;;;8.70;;
2542;SDS011;1116;51.502;7.414;2023-02-03T08:04:23;12.13;;;8.60;;
2542;SDS011;1116;51.502;7.414;2023-02-03T08:06:54;10.13;;;8.37;;
2542;SDS011;1116;51.502;7.414;2023-02-03T08:09:25;10.10;;;8.40;;
2542;SDS011;1116;51.502;7.414;2023-02-03T08:12:01;13.33;;;8.30;;
2542;SDS011;1116;51.502;7.414;2023-02-03T08:14:32;14.37;;;9.40;;
2542;SDS011;1116;51.502;7.414;2023-02-03T08:17:03;14.33;;;9.23;;
2542;SDS011;1116;51.502;7.414;2023-02-03T08:19:34;9.83;;;8.93;;
2542;SDS011;1116;51.502;7.414;2023-02-03T08:22:05;9.17;;;8.20;;
2542;SDS011;1116;51.502;7.414;2023-02-03T08:24:42;10.80;;;8.13;;
2542;SDS011;1116;51.502;7.414;2023-02-03T08:29:59;13.10;;;9.73;;
2542;SDS011;1116;51.502;7.414;2023-02-03T08:32:31;10.17;;;8.80;;
2542;SDS011;1116;51.502;7.414;2023-02-03T08:35:02;11.20;;;8.23;;
2542;SDS011;1116;51.502;7.414;2023-02-03T08:37:36;11.57;;;8.77;;
2542;SDS011;1116;51.502;7.414;2023-02-03T08:40:07;10.40;;;8.40;;
2542;SDS011;1116;51.502;7.414;2023-02-03T08:45:21;9.50;;;8.43;;
2542;SDS011;1116;51.502;7.414;2023-02-03T08:47:52;14.23;;;9.30;;
2542;SDS011;1116;51.502;7.414;2023-02-03T08:50:23;10.10;;;8.03;;
2542;SDS011;1116;51.502;7.414;2023-02-03T08:52:54;11.90;;;8.40;;
2542;SDS011;1116;51.502;7.414;2023-02-03T08:55:24;9.60;;;8.70;;
2542;SDS011;1116;51.502;7.414;2023-02-03T08:57:58;9.40;;;8.47;;
2542;SDS011;1116;51.502;7.414;2023-02-03T09:00:29;9.60;;;8.57;;
2542;SDS011;1116;51.502;7.414;2023-02-03T09:02:59;15.23;;;9.37;;
2542;SDS011;1116;51.502;7.414;2023-02-03T09:05:30;11.83;;;7.70;;
2542;SDS011;1116;51.502;7.414;2023-02-03T09:08:02;10.30;;;7.60;;
2542;SDS011;1116;51.502;7.414;2023-02-03T09:10:33;11.73;;;7.50;;
2542;SDS011;1116;51.502;7.414;2023-02-03T09:13:07;15.70;;;8.50;;
2542;SDS011;1116;51.502;7.414;2023-02-03T09:15:38;11.70;;;7.40;;
2542;SDS011;1116;51.502;7.414;2023-02-03T09:18:08;11.50;;;8.07;;
2542;SDS011;1116;51.502;7.414;2023-02-03T09:20:39;9.03;;;7.60;;
2542;SDS011;1116;51.502;7.414;2023-02-03T09:23:10;9.93;;;7.53;;
2542;SDS011;1116;51.502;7.414;2023-02-03T09:25:41;12.30;;;8.90;;
2542;SDS011;1116;51.502;7.414;2023-02-03T09:28:18;13.47;;;8.20;;
2542;SDS011;1116;51.502;7.414;2023-02-03T09:30:49;11.87;;;7.87;;
2542;SDS011;1116;51.502;7.414;2023-02-03T09:33:20;9.70;;;8.70;;
2542;SDS011;1116;51.502;7.414;2023-02-03T09:35:51;13.23;;;8.93;;
2542;SDS011;1116;51.502;7.414;2023-02-03T09:38:22;11.93;;;9.40;;
2542;SDS011;1116;51.502;7.414;2023-02-03T09:41:00;12.80;;;9.30;;
2542;SDS011;1116;51.502;7.414;2023-02-03T09:43:42;14.63;;;9.50;;
2542;SDS011;1116;51.502;7.414;2023-02-03T09:46:20;11.20;;;9.07;;
2542;SDS011;1116;51.502;7.414;2023-02-03T09:48:55;11.90;;;9.40;;
2542;SDS011;1116;51.502;7.414;2023-02-03T09:51:35;16.00;;;9.30;;
2542;SDS011;1116;51.502;7.414;2023-02-03T09:54:14;16.60;;;10.37;;
2542;SDS011;1116;51.502;7.414;2023-02-03T09:56:48;14.63;;;10.47;;
2542;SDS011;1116;51.502;7.414;2023-02-03T09:59:24;15.40;;;9.57;;
2542;SDS011;1116;51.502;7.414;2023-02-03T10:01:59;12.13;;;10.10;;
2542;SDS011;1116;51.502;7.414;2023-02-03T10:04:37;13.73;;;8.77;;
2542;SDS011;1116;51.502;7.414;2023-02-03T10:07:12;12.53;;;8.93;;
2542;SDS011;1116;51.502;7.414;2023-02-03T10:09:53;11.73;;;8.67;;
2542;SDS011;1116;51.502;7.414;2023-02-03T10:12:42;11.27;;;9.60;;
2542;SDS011;1116;51.502;7.414;2023-02-03T10:18:40;10.10;;;8.07;;
2542;SDS011;1116;51.502;7.414;2023-02-03T10:21:18;16.80;;;9.90;;
2542;SDS011;1116;51.502;7.414;2023-02-03T10:24:02;15.70;;;10.50;;
2542;SDS011;1116;51.502;7.414;2023-02-03T10:26:36;12.37;;;9.40;;
2542;SDS011;1116;51.502;7.414;2023-02-03T10:29:14;14.77;;;8.90;;
2542;SDS011;1116;51.502;7.414;2023-02-03T10:31:54;16.30;;;9.20;;
2542;SDS011;1116;51.502;7.414;2023-02-03T10:34:27;14.17;;;10.30;;
2542;SDS011;1116;51.502;7.414;2023-02-03T10:36:58;12.70;;;10.60;;
2542;SDS011;1116;51.502;7.414;2023-02-03T10:39:35;17.90;;;9.70;;
2542;SDS011;1116;51.502;7.414;2023-02-03T10:42:21;13.00;;;9.53;;
2542;SDS011;1116;51.502;7.414;2023-02-03T10:45:19;13.23;;;10.10;;
2542;SDS011;1116;51.502;7.414;2023-02-03T10:47:50;12.10;;;9.30;;
2542;SDS011;1116;51.502;7.414;2023-02-03T10:50:24;14.50;;;10.90;;
2542;SDS011;1116;51.502;7.414;2023-02-03T10:56:03;15.57;;;10.17;;
2542;SDS011;1116;51.502;7.414;2023-02-03T10:58:46;15.97;;;9.50;;
2542;SDS011;1116;51.502;7.414;2023-02-03T11:01:19;15.13;;;9.20;;
2542;SDS011;1116;51.502;7.414;2023-02-03T11:03:57;14.73;;;8.57;;
2542;SDS011;1116;51.502;7.414;2023-02-03T11:06:30;18.00;;;8.57;;
2542;SDS011;1116;51.502;7.414;2023-02-03T11:09:03;13.63;;;9.33;;
2542;SDS011;1116;51.502;7.414;2023-02-03T11:12:14;12.80;;;8.40;;
2542;SDS011;1116;51.502;7.414;2023-02-03T11:14:50;9.87;;;7.93;;
2542;SDS011;1116;51.502;7.414;2023-02-03T11:17:37;13.73;;;8.27;;
2542;SDS011;1116;51.502;7.414;2023-02-03T11:20:14;13.40;;;7.15;;
2542;SDS011;1116;51.502;7.414;2023-02-03T11:22:46;13.67;;;8.20;;
2542;SDS011;1116;51.502;7.414;2023-02-03T11:25:18;10.80;;;6.27;;
2542;SDS011;1116;51.502;7.414;2023-02-03T11:27:53;9.50;;;6.50;;
2542;SDS011;1116;51.502;7.414;2023-02-03T11:30:27;11.77;;;7.10;;
2542;SDS011;1116;51.502;7.414;2023-02-03T11:33:02;16.63;;;9.70;;
2542;SDS011;1116;51.502;7.414;2023-02-03T11:35:52;12.00;;;6.33;;
2542;SDS011;1116;51.502;7.414;2023-02-03T11:38:29;11.60;;;7.83;;
2542;SDS011;1116;51.502;7.414;2023-02-03T11:43:59;15.00;;;6.63;;
2542;SDS011;1116;51.502;7.414;2023-02-03T11:46:41;12.03;;;6.40;;
2542;SDS011;1116;51.502;7.414;2023-02-03T11:49:19;12.43;;;6.70;;
2542;SDS011;1116;51.502;7.414;2023-02-03T11:52:17;11.23;;;6.80;;
2542;SDS011;1116;51.502;7.414;2023-02-03T11:55:26;8.83;;;6.80;;
2542;SDS011;1116;51.502;7.414;2023-02-03T11:58:12;9.43;;;6.27;;
2542;SDS011;1116;51.502;7.414;2023-02-03T12:01:11;12.30;;;6.40;;
2542;SDS011;1116;51.502;7.414;2023-02-03T12:06:57;12.10;;;6.40;;
2542;SDS011;1116;51.502;7.414;2023-02-03T12:09:38;12.13;;;6.87;;
2542;SDS011;1116;51.502;7.414;2023-02-03T12:12:30;8.87;;;6.37;;
2542;SDS011;1116;51.502;7.414;2023-02-03T12:15:15;10.03;;;7.30;;
2542;SDS011;1116;51.502;7.414;2023-02-03T12:18:01;11.90;;;6.30;;
2542;SDS011;1116;51.502;7.414;2023-02-03T12:20:56;7.93;;;6.07;;
2542;SDS011;1116;51.502;7.414;2023-02-03T12:23:42;8.23;;;5.80;;
2542;SDS011;1116;51.502;7.414;2023-02-03T12:26:21;9.10;;;5.17;;
2542;SDS011;1116;51.502;7.414;2023-02-03T12:28:56;13.17;;;5.93;;
2542;SDS011;1116;51.502;7.414;2023-02-03T12:31:33;9.87;;;5.47;;
2542;SDS011;1116;51.502;7.414;2023-02-03T12:34:11;7.60;;;5.40;;
2542;SDS011;1116;51.502;7.414;2023-02-03T12:36:50;13.63;;;5.10;;
2542;SDS011;1116;51.502;7.414;2023-02-03T12:39:27;12.70;;;5.90;;
2542;SDS011;1116;51.502;7.414;2023-02-03T12:42:28;13.20;;;5.87;;
2542;SDS011;1116;51.502;7.414;2023-02-03T12:45:05;6.77;;;5.83;;
2542;SDS011;1116;51.502;7.414;2023-02-03T12:47:48;8.60;;;5.60;;
2542;SDS011;1116;51.502;7.414;2023-02-03T12:50:29;9.13;;;5.57;;
2542;SDS011;1116;51.502;7.414;2023-02-03T12:53:18;10.33;;;4.90;;
2542;SDS011;1116;51.502;7.414;2023-02-03T12:55:56;10.37;;;5.60;;
2542;SDS011;1116;51.502;7.414;2023-02-03T12:58:32;8.80;;;5.60;;
2542;SDS011;1116;51.502;7.414;2023-02-03T13:01:08;9.27;;;5.33;;
2542;SDS011;1116;51.502;7.414;2023-02-03T13:04:09;8.17;;;4.93;;
2542;SDS011;1116;51.502;7.414;2023-02-03T13:06:48;8.83;;;4.30;;
2542;SDS011;1116;51.502;7.414;2023-02-03T13:09:30;8.47;;;4.60;;
2542;SDS011;1116;51.502;7.414;2023-02-03T13:12:08;7.40;;;3.90;;
2542;SDS011;1116;51.502;7.414;2023-02-03T13:14:43;8.87;;;4.60;;
2542;SDS011;1116;51.502;7.414;2023-02-03T13:17:19;8.90;;;4.00;;
2542;SDS011;1116;51.502;7.414;2023-02-03T13:19:59;7.70;;;3.97;;
2542;SDS011;1116;51.502;7.414;2023-02-03T13:22:33;7.13;;;4.40;;
2542;SDS011;1116;51.502;7.414;2023-02-03T13:25:08;10.20;;;4.50;;
2542;SDS011;1116;51.502;7.414;2023-02-03T13:27:50;11.70;;;4.37;;
2542;SDS011;1116;51.502;7.414;2023-02-03T13:30:37;8.30;;;4.03;;
2542;SDS011;1116;51.502;7.414;2023-02-03T13:39:29;11.80;;;3.90;;
2542;SDS011;1116;51.502;7.414;2023-02-03T13:45:17;10.43;;;3.47;;
2542;SDS011;1116;51.502;7.414;2023-02-03T13:47:55;16.90;;;5.00;;
2542;SDS011;1116;51.502;7.414;2023-02-03T13:50:29;15.03;;;3.50;;
2542;SDS011;1116;51.502;7.414;2023-02-03T13:53:03;15.63;;;5.30;;
2542;SDS011;1116;51.502;7.414;2023-02-03T13:55:36;12.30;;;3.93;;
2542;SDS011;1116;51.502;7.414;2023-02-03T13:58:17;16.60;;;5.23;;
2542;SDS011;1116;51.502;7.414;2023-02-03T14:04:03;16.73;;;4.00;;
2542;SDS011;1116;51.502;7.414;2023-02-03T14:09:37;13.00;;;4.17;;
2542;SDS011;1116;51.502;7.414;2023-02-03T14:12:31;18.20;;;4.37;;
2542;SDS011;1116;51.502;7.414;2023-02-03T14:15:17;16.30;;;4.50;;
2542;SDS011;1116;51.502;7.414;2023-02-03T14:17:55;15.97;;;4.57;;
2542;SDS011;1116;51.502;7.414;2023-02-03T14:20:39;19.10;;;5.87;;
2542;SDS011;1116;51.502;7.414;2023-02-03T14:23:17;12.67;;;4.50;;
2542;SDS011;1116;51.502;7.414;2023-02-03T14:25:54;13.23;;;4.03;;
2542;SDS011;1116;51.502;7.414;2023-02-03T14:28:38;14.30;;;4.33;;
2542;SDS011;1116;51.502;7.414;2023-02-03T14:31:15;11.90;;;5.20;;
2542;SDS011;1116;51.502;7.414;2023-02-03T14:33:56;15.20;;;4.43;;
2542;SDS011;1116;51.502;7.414;2023-02-03T14:36:54;15.60;;;4.83;;
2542;SDS011;1116;51.502;7.414;2023-02-03T14:42:40;11.77;;;4.23;;
2542;SDS011;1116;51.502;7.414;2023-02-03T14:45:48;12.57;;;4.10;;
2542;SDS011;1116;51.502;7.414;2023-02-03T14:48:44;12.10;;;3.97;;
2542;SDS011;1116;51.502;7.414;2023-02-03T14:51:23;16.50;;;4.50;;
2542;SDS011;1116;51.502;7.414;2023-02-03T14:54:12;17.37;;;4.23;;
2542;SDS011;1116;51.502;7.414;2023-02-03T14:56:58;16.20;;;4.07;;
2542;SDS011;1116;51.502;7.414;2023-02-03T14:59:47;12.87;;;4.23;;
2542;SDS011;1116;51.502;7.414;2023-02-03T15:02:21;20.40;;;5.43;;
2542;SDS011;1116;51.502;7.414;2023-02-03T15:07:57;10.13;;;4.63;;
2542;SDS011;1116;51.502;7.414;2023-02-03T15:10:39;14.97;;;5.97;;
2542;SDS011;1116;51.502;7.414;2023-02-03T15:13:22;21.50;;;5.30;;
2542;SDS011;1116;51.502;7.414;2023-02-03T15:15:54;18.03;;;4.93;;
2542;SDS011;1116;51.502;7.414;2023-02-03T15:18:28;18.80;;;4.40;;
2542;SDS011;1116;51.502;7.414;2023-02-03T15:21:02;17.50;;;4.50;;
2542;SDS011;1116;51.502;7.414;2023-02-03T15:23:36;18.53;;;5.63;;
2542;SDS011;1116;51.502;7.414;2023-02-03T15:26:17;17.43;;;4.73;;
2542;SDS011;1116;51.502;7.414;2023-02-03T15:28:56;17.63;;;5.80;;
2542;SDS011;1116;51.502;7.414;2023-02-03T15:31:30;19.00;;;4.60;;
2542;SDS011;1116;51.502;7.414;2023-02-03T15:34:04;14.87;;;5.33;;
2542;SDS011;1116;51.502;7.414;2023-02-03T15:36:50;12.73;;;4.40;;
2542;SDS011;1116;51.502;7.414;2023-02-03T15:39:27;17.80;;;4.63;;
2542;SDS011;1116;51.502;7.414;2023-02-03T15:42:18;15.97;;;4.40;;
2542;SDS011;1116;51.502;7.414;2023-02-03T15:44:55;17.63;;;4.60;;
2542;SDS011;1116;51.502;7.414;2023-02-03T15:47:29;12.53;;;4.30;;
2542;SDS011;1116;51.502;7.414;2023-02-03T15:50:04;17.10;;;5.13;;
2542;SDS011;1116;51.502;7.414;2023-02-03T15:52:38;20.87;;;5.20;;
2542;SDS011;1116;51.502;7.414;2023-02-03T15:55:15;14.67;;;5.27;;
2542;SDS011;1116;51.502;7.414;2023-02-03T15:57:58;17.17;;;4.90;;
2542;SDS011;1116;51.502;7.414;2023-02-03T16:00:31;17.00;;;6.27;;
2542;SDS011;1116;51.502;7.414;2023-02-03T16:03:06;14.20;;;4.47;;
2542;SDS011;1116;51.502;7.414;2023-02-03T16:05:47;18.87;;;4.77;;
2542;SDS011;1116;51.502;7.414;2023-02-03T16:08:26;22.40;;;6.30;;
2542;SDS011;1116;51.502;7.414;2023-02-03T16:13:56;18.43;;;6.33;;
2542;SDS011;1116;51.502;7.414;2023-02-03T16:16:34;16.23;;;4.60;;
2542;SDS011;1116;51.502;7.414;2023-02-03T16:19:11;15.67;;;4.90;;
2542;SDS011;1116;51.502;7.414;2023-02-03T16:21:51;20.03;;;5.20;;
2542;SDS011;1116;51.502;7.414;2023-02-03T16:24:33;16.93;;;5.43;;
2542;SDS011;1116;51.502;7.414;2023-02-03T16:27:18;19.70;;;7.20;;
2542;SDS011;1116;51.502;7.414;2023-02-03T16:29:53;14.37;;;4.27;;
2542;SDS011;1116;51.502;7.414;2023-02-03T16:32:37;17.67;;;6.50;;
2542;SDS011;1116;51.502;7.414;2023-02-03T16:35:25;20.97;;;5.60;;
2542;SDS011;1116;51.502;7.414;2023-02-03T16:38:13;21.03;;;5.50;;
2542;SDS011;1116;51.502;7.414;2023-02-03T16:40:57;12.73;;;5.30;;